createdAt,value
2023-01-05T00:02:37.546Z,16.45
2023-01-05T00:05:39.971Z,16.28
2023-01-05T00:08:42.940Z,16.07
2023-01-05T00:12:06.397Z,15.81
2023-01-05T00:15:30.865Z,16.00
2023-01-05T00:18:53.359Z,16.02
2023-01-05T00:22:16.329Z,15.97
2023-01-05T00:25:22.224Z,15.74
2023-01-05T00:28:26.337Z,15.71
2023-01-05T00:31:28.671Z,15.59
2023-01-05T00:34:30.771Z,15.57
2023-01-05T00:37:34.752Z,15.45
2023-01-05T00:40:37.033Z,15.51
2023-01-05T00:43:39.140Z,15.35
2023-01-05T00:46:41.761Z,15.43
2023-01-05T00:49:45.264Z,15.47
2023-01-05T00:52:48.074Z,15.51
2023-01-05T00:56:01.335Z,15.42
2023-01-05T00:59:06.803Z,15.36
2023-01-05T01:02:13.819Z,15.35
2023-01-05T01:05:16.120Z,15.22
2023-01-05T01:08:21.045Z,15.11
2023-01-05T01:11:25.317Z,15.05
2023-01-05T01:14:27.700Z,15.00
2023-01-05T01:17:32.656Z,14.95
2023-01-05T01:20:34.742Z,15.05
2023-01-05T01:23:38.080Z,14.92
2023-01-05T01:26:40.341Z,14.88
2023-01-05T01:29:42.396Z,14.82
2023-01-05T01:32:44.500Z,14.81
2023-01-05T01:35:46.572Z,14.60
2023-01-05T01:38:49.368Z,14.52
2023-01-05T01:41:52.678Z,14.54
2023-01-05T01:45:12.387Z,14.50
2023-01-05T01:48:17.995Z,14.57
2023-01-05T01:51:33.931Z,14.48
2023-01-05T01:54:37.362Z,14.41
2023-01-05T01:57:42.523Z,14.47
2023-01-05T02:00:46.263Z,14.36
2023-01-05T02:03:48.654Z,14.35
2023-01-05T02:06:53.078Z,14.29
2023-01-05T02:09:55.367Z,14.30
2023-01-05T02:13:36.440Z,14.13
2023-01-05T02:16:58.234Z,14.28
2023-01-05T02:20:22.547Z,14.14
2023-01-05T02:23:55.010Z,14.05
2023-01-05T02:27:13.605Z,14.01
2023-01-05T02:30:35.094Z,13.98
2023-01-05T02:33:55.726Z,14.08
2023-01-05T02:37:36.913Z,14.02
2023-01-05T02:40:50.387Z,13.94
2023-01-05T02:43:56.582Z,13.91
2023-01-05T02:47:07.774Z,14.00
2023-01-05T02:50:15.999Z,14.06
2023-01-05T02:53:24.611Z,14.00
2023-01-05T02:56:46.838Z,13.85
2023-01-05T02:59:54.524Z,14.01
2023-01-05T03:03:04.472Z,14.05
2023-01-05T03:06:21.933Z,14.13
2023-01-05T03:09:29.629Z,14.10
2023-01-05T03:12:53.830Z,13.81
2023-01-05T03:16:02.199Z,13.76
2023-01-05T03:19:29.142Z,13.85
2023-01-05T03:22:51.565Z,13.93
2023-01-05T03:26:14.961Z,13.99
2023-01-05T03:29:36.116Z,13.89
2023-01-05T03:33:28.838Z,13.95
2023-01-05T03:36:39.829Z,13.92
2023-01-05T03:39:47.317Z,14.05
2023-01-05T03:42:51.474Z,13.93
2023-01-05T03:45:57.326Z,13.68
2023-01-05T03:49:07.097Z,13.63
2023-01-05T03:52:09.827Z,13.65
2023-01-05T03:55:15.679Z,13.76
2023-01-05T03:58:18.643Z,13.69
2023-01-05T04:01:24.287Z,13.72
2023-01-05T04:04:27.863Z,13.65
2023-01-05T04:07:30.132Z,13.76
2023-01-05T04:10:34.709Z,13.57
2023-01-05T04:13:37.430Z,13.64
2023-01-05T04:16:40.228Z,13.83
2023-01-05T04:19:51.903Z,13.81
2023-01-05T04:22:54.524Z,13.73
2023-01-05T04:25:58.568Z,13.78
2023-01-05T04:29:01.267Z,13.76
2023-01-05T04:32:07.980Z,13.49
2023-01-05T04:35:11.661Z,13.63
2023-01-05T04:38:15.959Z,13.76
2023-01-05T04:41:19.768Z,13.76
2023-01-05T04:44:25.441Z,13.72
2023-01-05T04:47:29.260Z,13.83
2023-01-05T04:50:32.133Z,13.90
2023-01-05T04:53:35.561Z,13.72
2023-01-05T04:56:39.513Z,13.73
2023-01-05T04:59:43.870Z,13.84
2023-01-05T05:02:47.271Z,13.97
2023-01-05T05:05:50.474Z,13.96
2023-01-05T05:08:52.839Z,13.49
2023-01-05T05:11:56.787Z,13.81
2023-01-05T05:15:01.959Z,14.06
2023-01-05T05:18:09.253Z,13.81
2023-01-05T05:21:16.709Z,13.83
2023-01-05T05:24:19.264Z,13.47
2023-01-05T05:27:22.388Z,13.38
2023-01-05T05:30:24.521Z,13.24
2023-01-05T05:33:28.347Z,13.26
2023-01-05T05:36:30.364Z,13.24
2023-01-05T05:39:32.464Z,13.20
2023-01-05T05:42:34.593Z,13.23
2023-01-05T05:45:36.689Z,13.23
2023-01-05T05:48:39.480Z,14.05
2023-01-05T05:51:41.785Z,15.23
2023-01-05T05:54:43.848Z,15.57
2023-01-05T05:57:46.037Z,16.24
2023-01-05T06:00:48.254Z,16.67
2023-01-05T06:03:50.387Z,17.58
2023-01-05T06:06:52.460Z,17.50
2023-01-05T06:09:54.641Z,17.56
2023-01-05T06:12:57.038Z,18.26
2023-01-05T06:15:59.098Z,18.07
2023-01-05T06:19:01.289Z,18.72
2023-01-05T06:22:04.538Z,18.82
2023-01-05T06:25:06.975Z,18.99
2023-01-05T06:28:09.465Z,19.28
2023-01-05T06:31:12.887Z,19.79
2023-01-05T06:34:15.120Z,18.90
2023-01-05T06:37:17.298Z,19.32
2023-01-05T06:40:19.908Z,18.46
2023-01-05T06:43:24.872Z,18.09
2023-01-05T06:46:29.371Z,18.28
2023-01-05T06:49:31.544Z,18.46
2023-01-05T06:52:37.182Z,19.30
2023-01-05T06:58:38.436Z,20.14
2023-01-05T07:01:40.592Z,18.87
2023-01-05T07:04:43.447Z,18.53
2023-01-05T07:07:45.517Z,18.58
2023-01-05T07:10:47.792Z,18.51
2023-01-05T07:13:57.398Z,18.68
2023-01-05T07:16:59.743Z,19.55
2023-01-05T07:20:02.672Z,21.02
2023-01-05T07:23:13.447Z,20.34
2023-01-05T07:26:16.552Z,20.98
2023-01-05T07:29:18.784Z,21.59
2023-01-05T07:32:20.930Z,21.96
2023-01-05T07:35:23.123Z,22.07
2023-01-05T07:38:25.284Z,22.08
2023-01-05T07:41:29.859Z,22.04
2023-01-05T07:47:55.503Z,21.89
2023-01-05T07:51:06.485Z,20.69
2023-01-05T07:54:09.148Z,19.70
2023-01-05T07:57:11.146Z,19.27
2023-01-05T08:00:15.526Z,19.03
2023-01-05T08:03:17.761Z,18.63
2023-01-05T08:06:21.695Z,18.71
2023-01-05T08:09:43.586Z,18.56
2023-01-05T08:13:04.510Z,18.34
2023-01-05T08:16:06.923Z,17.98
2023-01-05T08:19:13.997Z,17.93
2023-01-05T08:22:17.346Z,17.91
2023-01-05T08:25:21.468Z,17.23
2023-01-05T08:28:29.937Z,17.30
2023-01-05T08:31:39.496Z,17.46
2023-01-05T08:34:55.231Z,17.44
2023-01-05T08:37:57.966Z,17.80
2023-01-05T08:41:01.152Z,17.88
2023-01-05T08:44:06.346Z,18.08
2023-01-05T08:47:09.038Z,17.85
2023-01-05T08:50:12.062Z,18.01
2023-01-05T08:53:15.959Z,17.85
2023-01-05T08:56:21.457Z,17.67
2023-01-05T08:59:24.600Z,18.11
2023-01-05T09:02:27.039Z,18.59
2023-01-05T09:05:30.932Z,18.89
2023-01-05T09:08:34.127Z,18.90
2023-01-05T09:11:36.732Z,19.14
2023-01-05T09:14:52.176Z,19.34
2023-01-05T09:17:56.182Z,19.38
2023-01-05T09:21:01.530Z,19.76
2023-01-05T09:24:04.260Z,19.73
2023-01-05T09:27:09.296Z,19.79
2023-01-05T09:30:12.062Z,20.04
2023-01-05T09:33:15.196Z,20.15
2023-01-05T09:36:19.895Z,20.14
2023-01-05T09:39:24.939Z,20.37
2023-01-05T09:42:31.577Z,20.30
2023-01-05T09:45:33.933Z,20.40
2023-01-05T09:48:47.301Z,20.44
2023-01-05T09:51:55.228Z,20.33
2023-01-05T09:55:00.487Z,20.48
2023-01-05T09:58:12.780Z,20.73
2023-01-05T10:01:17.782Z,20.53
2023-01-05T10:04:30.074Z,20.73
2023-01-05T10:07:39.049Z,20.90
2023-01-05T10:11:36.323Z,20.68
2023-01-05T10:14:46.369Z,20.89
2023-01-05T10:17:48.734Z,20.79
2023-01-05T10:20:59.886Z,20.89
2023-01-05T10:24:08.200Z,20.87
2023-01-05T10:27:27.857Z,20.85
2023-01-05T10:30:57.658Z,20.88
2023-01-05T10:34:23.558Z,20.94
2023-01-05T10:37:42.766Z,20.88
2023-01-05T10:41:09.069Z,21.60
2023-01-05T10:44:53.498Z,21.06
2023-01-05T10:47:56.144Z,21.40
2023-01-05T10:50:59.698Z,21.35
2023-01-05T10:54:03.970Z,20.94
2023-01-05T10:57:36.625Z,21.39
2023-01-05T11:00:41.976Z,21.29
2023-01-05T11:04:25.249Z,21.11
2023-01-05T11:07:11.990Z,20.71
2023-01-05T11:10:33.365Z,21.52
2023-01-05T11:13:42.926Z,22.27
2023-01-05T11:16:52.262Z,22.63
2023-01-05T11:19:56.380Z,22.86
2023-01-05T11:22:59.054Z,22.81
2023-01-05T11:26:19.129Z,22.83
2023-01-05T11:29:22.026Z,22.66
2023-01-05T11:32:27.221Z,21.61
2023-01-05T11:35:38.131Z,20.76
2023-01-05T11:38:40.738Z,21.59
2023-01-05T11:41:44.423Z,22.82
2023-01-05T11:45:01.870Z,22.94
2023-01-05T11:48:10.061Z,21.82
2023-01-05T11:51:36.692Z,22.06
2023-01-05T11:54:39.519Z,22.57
2023-01-05T11:57:41.622Z,22.51
2023-01-05T12:01:08.312Z,22.35
2023-01-05T12:04:25.430Z,22.94
2023-01-05T12:07:37.088Z,22.45
2023-01-05T12:11:11.706Z,22.71
2023-01-05T12:14:35.031Z,23.38
2023-01-05T12:17:59.424Z,22.99
2023-01-05T12:21:21.089Z,22.28
2023-01-05T12:24:50.748Z,23.24
2023-01-05T12:28:10.904Z,22.63
2023-01-05T12:35:37.585Z,23.45
2023-01-05T12:39:11.405Z,22.70
2023-01-05T12:42:33.779Z,23.51
2023-01-05T12:46:00.280Z,23.32
2023-01-05T12:49:28.444Z,22.39
2023-01-05T12:52:49.975Z,23.51
2023-01-05T12:56:02.795Z,23.78
2023-01-05T12:59:50.505Z,23.28
2023-01-05T13:03:09.826Z,23.92
2023-01-05T13:06:24.519Z,23.80
2023-01-05T13:09:36.504Z,23.03
2023-01-05T13:12:43.836Z,23.68
2023-01-05T13:15:59.192Z,23.22
2023-01-05T13:19:25.014Z,23.03
2023-01-05T13:22:34.617Z,23.59
2023-01-05T13:25:49.684Z,23.30
2023-01-05T13:28:55.954Z,22.22
2023-01-05T13:32:08.139Z,23.27
2023-01-05T13:35:53.475Z,22.91
2023-01-05T13:39:16.169Z,21.97
2023-01-05T13:43:05.549Z,23.06
2023-01-05T13:46:39.032Z,23.51
2023-01-05T13:50:11.421Z,22.30
2023-01-05T13:53:24.982Z,23.05
2023-01-05T13:56:51.425Z,22.58
2023-01-05T14:00:06.640Z,22.86
2023-01-05T14:03:27.577Z,23.62
2023-01-05T14:06:38.338Z,23.81
2023-01-05T14:09:58.429Z,23.25
2023-01-05T14:13:02.093Z,23.74
2023-01-05T14:16:41.410Z,23.65
2023-01-05T14:19:59.278Z,23.15
2023-01-05T14:23:29.886Z,23.66
2023-01-05T14:27:10.702Z,23.88
2023-01-05T14:30:43.227Z,23.07
2023-01-05T14:34:14.688Z,23.44
2023-01-05T14:37:40.165Z,23.85
2023-01-05T14:40:46.876Z,23.27
2023-01-05T14:43:59.955Z,23.78
2023-01-05T14:47:03.239Z,23.58
2023-01-05T14:50:07.354Z,23.14
2023-01-05T14:53:43.402Z,23.50
2023-01-05T14:57:20.765Z,23.03
2023-01-05T15:01:03.275Z,22.00
2023-01-05T15:04:18.039Z,22.32
2023-01-05T15:11:11.805Z,22.06
2023-01-05T15:14:37.841Z,22.68
2023-01-05T15:17:59.971Z,24.76
2023-01-05T15:21:19.676Z,25.36
2023-01-05T15:24:42.771Z,25.23
2023-01-05T15:28:24.558Z,24.38
2023-01-05T15:31:49.053Z,22.64
2023-01-05T15:34:54.133Z,21.71
2023-01-05T15:37:56.371Z,21.11
2023-01-05T15:41:22.807Z,20.66
2023-01-05T15:44:37.552Z,20.45
2023-01-05T15:47:40.559Z,20.13
2023-01-05T15:50:48.736Z,20.09
2023-01-05T15:54:10.305Z,19.68
2023-01-05T15:57:23.614Z,19.64
2023-01-05T16:00:30.208Z,19.76
2023-01-05T16:03:38.673Z,19.80
2023-01-05T16:06:41.300Z,20.01
2023-01-05T16:09:50.876Z,20.05
2023-01-05T16:12:59.110Z,20.19
2023-01-05T16:16:07.163Z,20.18
2023-01-05T16:19:42.745Z,20.24
2023-01-05T16:23:08.737Z,20.32
2023-01-05T16:26:18.210Z,20.18
2023-01-05T16:29:49.809Z,20.07
2023-01-05T16:33:03.813Z,19.97
2023-01-05T16:36:20.208Z,19.75
2023-01-05T16:39:24.955Z,20.08
2023-01-05T16:42:40.740Z,20.53
2023-01-05T16:45:43.181Z,21.05
2023-01-05T16:48:50.292Z,21.21
2023-01-05T16:51:53.440Z,21.29
2023-01-05T16:55:27.591Z,21.27
2023-01-05T16:58:31.166Z,21.28
2023-01-05T17:01:43.151Z,21.06
2023-01-05T17:04:48.050Z,20.87
2023-01-05T17:07:59.820Z,20.76
2023-01-05T17:11:04.428Z,20.53
2023-01-05T17:14:07.873Z,20.53
2023-01-05T17:17:30.157Z,20.55
2023-01-05T17:20:44.386Z,21.22
2023-01-05T17:23:54.719Z,21.82
2023-01-05T17:26:57.703Z,21.64
2023-01-05T17:30:00.710Z,20.96
2023-01-05T17:33:03.243Z,20.26
2023-01-05T17:36:06.055Z,19.88
2023-01-05T17:39:21.128Z,19.85
2023-01-05T17:42:43.827Z,19.54
2023-01-05T17:45:47.480Z,19.61
2023-01-05T17:48:49.678Z,19.52
2023-01-05T17:51:52.275Z,19.38
2023-01-05T17:54:54.510Z,19.50
2023-01-05T17:57:58.181Z,19.48
2023-01-05T18:01:00.246Z,19.29
2023-01-05T18:04:03.526Z,19.27
2023-01-05T18:10:20.157Z,19.04
2023-01-05T18:13:24.613Z,19.04
2023-01-05T18:19:33.795Z,19.00
2023-01-05T18:22:40.929Z,18.93
2023-01-05T18:29:02.316Z,18.77
2023-01-05T18:32:05.636Z,18.61
2023-01-05T18:35:10.618Z,18.59
2023-01-05T18:38:13.789Z,18.48
2023-01-05T18:41:15.840Z,18.50
2023-01-05T18:44:19.299Z,18.54
2023-01-05T18:47:21.309Z,18.48
2023-01-05T18:50:25.202Z,18.37
2023-01-05T18:53:27.321Z,18.29
2023-01-05T18:56:29.378Z,18.23
2023-01-05T18:59:31.789Z,18.21
2023-01-05T19:02:33.891Z,18.58
2023-01-05T19:05:41.974Z,18.69
2023-01-05T19:08:44.891Z,18.88
2023-01-05T19:11:48.579Z,18.96
2023-01-05T19:14:57.378Z,18.64
2023-01-05T19:18:02.959Z,18.73
2023-01-05T19:21:08.320Z,18.79
2023-01-05T19:24:18.227Z,18.88
2023-01-05T19:27:28.300Z,18.55
2023-01-05T19:30:32.728Z,18.43
2023-01-05T19:33:37.461Z,18.43
2023-01-05T19:36:39.594Z,18.55
2023-01-05T19:39:41.987Z,18.54
2023-01-05T19:42:44.737Z,18.43
2023-01-05T19:45:49.065Z,18.64
2023-01-05T19:48:52.428Z,18.67
2023-01-05T19:51:56.404Z,19.77
2023-01-05T19:54:58.806Z,19.75
2023-01-05T19:58:00.943Z,19.27
2023-01-05T20:01:16.403Z,18.78
2023-01-05T20:04:18.630Z,18.55
2023-01-05T20:07:25.147Z,18.40
2023-01-05T20:10:27.200Z,18.26
2023-01-05T20:13:29.362Z,18.24
2023-01-05T20:16:33.102Z,18.16
2023-01-05T20:19:39.593Z,17.96
2023-01-05T20:22:45.055Z,17.83
2023-01-05T20:25:47.632Z,17.87
2023-01-05T20:28:50.863Z,17.85
2023-01-05T20:31:58.156Z,17.74
2023-01-05T20:35:00.746Z,17.88
2023-01-05T20:38:03.452Z,18.05
2023-01-05T20:41:20.370Z,18.36
2023-01-05T20:44:27.956Z,18.72
2023-01-05T20:47:39.437Z,19.00
2023-01-05T20:50:49.336Z,18.97
2023-01-05T20:53:53.146Z,19.12
2023-01-05T20:56:55.811Z,19.06
2023-01-05T20:59:58.128Z,19.07
2023-01-05T21:03:00.411Z,19.04
2023-01-05T21:06:02.612Z,18.90
2023-01-05T21:09:10.910Z,18.89
2023-01-05T21:12:15.378Z,18.78
2023-01-05T21:15:21.539Z,18.66
2023-01-05T21:18:24.783Z,18.60
2023-01-05T21:21:28.672Z,18.58
2023-01-05T21:24:32.006Z,18.51
2023-01-05T21:27:35.912Z,18.51
2023-01-05T21:30:38.648Z,18.50
2023-01-05T21:33:41.849Z,18.36
2023-01-05T21:36:49.053Z,18.30
2023-01-05T21:39:51.157Z,18.37
2023-01-05T21:42:54.670Z,18.42
2023-01-05T21:45:57.572Z,18.35
2023-01-05T21:49:00.023Z,18.29
2023-01-05T21:52:25.442Z,18.00
2023-01-05T21:55:46.894Z,17.93
2023-01-05T21:58:50.352Z,18.03
2023-01-05T22:01:53.497Z,17.94
2023-01-05T22:04:59.515Z,17.97
2023-01-05T22:08:01.578Z,17.79
2023-01-05T22:11:05.165Z,17.74
2023-01-05T22:14:08.794Z,17.69
2023-01-05T22:17:12.107Z,17.55
2023-01-05T22:20:16.180Z,17.61
2023-01-05T22:23:18.656Z,17.62
2023-01-05T22:26:22.685Z,17.54
2023-01-05T22:29:27.624Z,17.56
2023-01-05T22:32:30.798Z,17.43
2023-01-05T22:35:34.057Z,17.58
2023-01-05T22:38:38.925Z,17.54
2023-01-05T22:41:41.432Z,17.59
2023-01-05T22:44:43.676Z,17.52
2023-01-05T22:47:45.710Z,17.48
2023-01-05T22:50:48.626Z,17.55
2023-01-05T22:53:51.729Z,17.65
2023-01-05T22:56:55.570Z,17.72
2023-01-05T22:59:57.583Z,17.74
2023-01-05T23:03:01.068Z,17.83
2023-01-05T23:06:06.601Z,17.74
2023-01-05T23:09:13.389Z,17.77
2023-01-05T23:12:15.836Z,18.06
2023-01-05T23:15:18.510Z,18.14
2023-01-05T23:18:23.024Z,18.13
2023-01-05T23:21:27.172Z,17.98
2023-01-05T23:24:30.112Z,18.01
2023-01-05T23:27:35.024Z,17.94
2023-01-05T23:30:42.150Z,17.75
2023-01-05T23:33:46.893Z,17.81
2023-01-05T23:37:01.772Z,17.51
2023-01-05T23:40:07.496Z,17.77
2023-01-05T23:43:14.087Z,17.79
2023-01-05T23:46:20.832Z,17.74
2023-01-05T23:49:23.556Z,17.99
2023-01-05T23:52:25.547Z,17.87
2023-01-05T23:55:28.074Z,18.06
2023-01-05T23:58:32.628Z,18.10
